createdAt,value
2018-10-19T00:01:08.424Z,101101.00
2018-10-19T00:03:37.656Z,101096.00
2018-10-19T00:06:06.910Z,101102.00
2018-10-19T00:08:36.085Z,101104.00
2018-10-19T00:11:11.715Z,101114.00
2018-10-19T00:13:40.850Z,101113.00
2018-10-19T00:16:10.023Z,101110.00
2018-10-19T00:18:39.271Z,101102.00
2018-10-19T00:21:08.527Z,101105.00
2018-10-19T00:26:46.533Z,101104.00
2018-10-19T00:29:15.752Z,101100.00
2018-10-19T00:31:44.865Z,101099.00
2018-10-19T00:34:14.314Z,101101.00
2018-10-19T00:36:43.587Z,101108.00
2018-10-19T00:39:13.626Z,101107.00
2018-10-19T00:41:43.207Z,101118.00
2018-10-19T00:44:12.382Z,101104.00
2018-10-19T00:46:41.612Z,101112.00
2018-10-19T00:49:12.435Z,101112.00
2018-10-19T00:52:07.984Z,101108.00
2018-10-19T00:57:38.226Z,101101.00
2018-10-19T01:00:07.402Z,101102.00
2018-10-19T01:02:36.573Z,101105.00
2018-10-19T01:05:05.847Z,101095.00
2018-10-19T01:07:35.028Z,101101.00
2018-10-19T01:10:04.238Z,101094.00
2018-10-19T01:12:33.479Z,101088.00
2018-10-19T01:15:02.674Z,101092.00
2018-10-19T01:17:31.864Z,101102.00
2018-10-19T01:20:01.069Z,101101.00
2018-10-19T01:22:30.238Z,101093.00
2018-10-19T01:25:11.793Z,101093.00
2018-10-19T01:27:41.049Z,101099.00
2018-10-19T01:30:10.753Z,101101.00
2018-10-19T01:32:39.969Z,101105.00
2018-10-19T01:35:11.336Z,101113.00
2018-10-19T01:37:41.017Z,101122.00
2018-10-19T01:40:11.514Z,101119.00
2018-10-19T01:42:40.770Z,101114.00
2018-10-19T01:45:11.847Z,101121.00
2018-10-19T01:50:26.350Z,101122.00
2018-10-19T01:52:55.521Z,101121.00
2018-10-19T01:55:24.753Z,101126.00
2018-10-19T01:57:53.983Z,101123.00
2018-10-19T02:00:23.151Z,101115.00
2018-10-19T02:02:52.349Z,101115.00
2018-10-19T02:05:21.517Z,101118.00
2018-10-19T02:07:50.694Z,101115.00
2018-10-19T02:10:19.930Z,101117.00
2018-10-19T02:12:49.106Z,101122.00
2018-10-19T02:15:18.378Z,101123.00
2018-10-19T02:17:47.570Z,101113.00
2018-10-19T02:20:16.750Z,101120.00
2018-10-19T02:22:45.975Z,101127.00
2018-10-19T02:25:15.186Z,101127.00
2018-10-19T02:27:44.357Z,101125.00
2018-10-19T02:30:13.525Z,101122.00
2018-10-19T02:32:42.726Z,101131.00
2018-10-19T02:35:12.241Z,101134.00
2018-10-19T02:37:41.540Z,101120.00
2018-10-19T02:40:11.180Z,101130.00
2018-10-19T02:42:40.345Z,101135.00
2018-10-19T02:45:10.627Z,101140.00
2018-10-19T02:47:40.126Z,101130.00
2018-10-19T02:50:10.135Z,101130.00
2018-10-19T02:52:39.941Z,101135.00
2018-10-19T02:55:10.558Z,101135.00
2018-10-19T02:57:39.755Z,101135.00
2018-10-19T03:00:12.845Z,101134.00
2018-10-19T03:02:42.582Z,101136.00
2018-10-19T03:05:11.841Z,101132.00
2018-10-19T03:07:41.262Z,101135.00
2018-10-19T03:10:10.660Z,101131.00
2018-10-19T03:12:39.919Z,101137.00
2018-10-19T03:15:09.941Z,101141.00
2018-10-19T03:17:39.084Z,101142.00
2018-10-19T03:20:08.957Z,101133.00
2018-10-19T03:22:38.638Z,101145.00
2018-10-19T03:25:11.194Z,101147.00
2018-10-19T03:27:40.453Z,101143.00
2018-10-19T03:30:10.077Z,101139.00
2018-10-19T03:32:39.288Z,101139.00
2018-10-19T03:35:08.590Z,101133.00
2018-10-19T03:37:37.834Z,101140.00
2018-10-19T03:40:11.002Z,101142.00
2018-10-19T03:42:40.188Z,101140.00
2018-10-19T03:45:09.466Z,101151.00
2018-10-19T03:47:38.658Z,101148.00
2018-10-19T03:50:07.857Z,101152.00
2018-10-19T03:52:37.169Z,101157.00
2018-10-19T03:55:12.366Z,101155.00
2018-10-19T03:57:41.692Z,101150.00
2018-10-19T04:00:10.896Z,101152.00
2018-10-19T04:02:40.096Z,101149.00
2018-10-19T04:05:09.387Z,101152.00
2018-10-19T04:07:38.582Z,101153.00
2018-10-19T04:10:08.181Z,101153.00
2018-10-19T04:12:37.606Z,101150.00
2018-10-19T04:15:08.192Z,101150.00
2018-10-19T04:17:37.366Z,101154.00
2018-10-19T04:20:06.836Z,101148.00
2018-10-19T04:22:36.157Z,101150.00
2018-10-19T04:25:11.887Z,101145.00
2018-10-19T04:27:41.246Z,101152.00
2018-10-19T04:30:10.358Z,101143.00
2018-10-19T04:32:53.923Z,101148.00
2018-10-19T04:35:23.086Z,101153.00
2018-10-19T04:37:52.427Z,101155.00
2018-10-19T04:40:23.260Z,101155.00
2018-10-19T04:42:52.466Z,101154.00
2018-10-19T04:45:21.705Z,101155.00
2018-10-19T04:47:51.013Z,101155.00
2018-10-19T04:50:20.149Z,101147.00
2018-10-19T04:52:49.345Z,101152.00
2018-10-19T04:55:20.886Z,101146.00
2018-10-19T04:57:50.122Z,101145.00
2018-10-19T05:03:20.145Z,101146.00
2018-10-19T05:05:49.363Z,101145.00
2018-10-19T05:08:18.723Z,101147.00
2018-10-19T05:10:48.036Z,101154.00
2018-10-19T05:13:17.191Z,101156.00
2018-10-19T05:15:46.362Z,101154.00
2018-10-19T05:18:15.582Z,101157.00
2018-10-19T05:20:44.774Z,101164.00
2018-10-19T05:23:14.245Z,101154.00
2018-10-19T05:25:43.416Z,101160.00
2018-10-19T05:28:12.565Z,101158.00
2018-10-19T05:30:41.796Z,101169.00
2018-10-19T05:33:10.994Z,101167.00
2018-10-19T05:35:40.212Z,101165.00
2018-10-19T05:38:09.396Z,101170.00
2018-10-19T05:40:38.611Z,101168.00
2018-10-19T05:43:07.862Z,101166.00
2018-10-19T05:48:37.537Z,101185.00
2018-10-19T05:51:07.253Z,101190.00
2018-10-19T05:53:36.433Z,101198.00
2018-10-19T05:56:06.343Z,101193.00
2018-10-19T05:58:35.524Z,101194.00
2018-10-19T06:01:04.749Z,101194.00
2018-10-19T06:03:33.985Z,101195.00
2018-10-19T06:06:03.323Z,101186.00
2018-10-19T06:08:32.647Z,101201.00
2018-10-19T06:11:01.842Z,101198.00
2018-10-19T06:13:31.078Z,101202.00
2018-10-19T06:16:00.317Z,101198.00
2018-10-19T06:18:29.593Z,101206.00
2018-10-19T06:20:58.865Z,101207.00
2018-10-19T06:23:28.061Z,101204.00
2018-10-19T06:25:57.448Z,101205.00
2018-10-19T06:28:26.496Z,101206.00
2018-10-19T06:30:55.715Z,101208.00
2018-10-19T06:33:47.789Z,101212.00
2018-10-19T06:36:17.953Z,101219.00
2018-10-19T06:38:47.991Z,101216.00
2018-10-19T06:44:20.963Z,101213.00
2018-10-19T06:47:09.702Z,101212.00
2018-10-19T06:50:08.454Z,101216.00
2018-10-19T06:59:08.193Z,101221.00
2018-10-19T07:13:39.109Z,101245.00
2018-10-19T07:16:13.014Z,101251.00
2018-10-19T07:18:43.318Z,101251.00
2018-10-19T07:21:13.311Z,101244.00
2018-10-19T07:23:43.555Z,101250.00
2018-10-19T07:26:13.607Z,101256.00
2018-10-19T07:33:13.332Z,101274.00
2018-10-19T07:36:08.118Z,101267.00
2018-10-19T07:41:38.190Z,101269.00
2018-10-19T07:44:08.349Z,101262.00
2018-10-19T07:50:07.835Z,101278.00
2018-10-19T08:02:07.907Z,101276.00
2018-10-19T08:04:38.043Z,101276.00
2018-10-19T08:07:12.045Z,101285.00
2018-10-19T08:10:07.806Z,101302.00
2018-10-19T08:15:38.779Z,101305.00
2018-10-19T08:18:12.587Z,101296.00
2018-10-19T08:21:08.005Z,101296.00
2018-10-19T08:29:38.083Z,101309.00
2018-10-19T08:32:12.348Z,101305.00
2018-10-19T08:34:42.592Z,101314.00
2018-10-19T08:37:13.402Z,101316.00
2018-10-19T08:39:43.577Z,101313.00
2018-10-19T08:42:13.767Z,101315.00
2018-10-19T08:44:44.086Z,101305.00
2018-10-19T08:47:14.410Z,101313.00
2018-10-19T08:50:08.142Z,101309.00
2018-10-19T08:52:38.363Z,101310.00
2018-10-19T08:55:12.100Z,101318.00
2018-10-19T08:57:42.235Z,101314.00
2018-10-19T09:00:13.333Z,101314.00
2018-10-19T09:02:43.438Z,101326.00
2018-10-19T09:05:13.785Z,101307.00
2018-10-19T09:07:43.979Z,101316.00
2018-10-19T09:10:14.103Z,101312.00
2018-10-19T09:12:44.482Z,101324.00
2018-10-19T09:15:15.066Z,101322.00
2018-10-19T09:18:09.275Z,101323.00
2018-10-19T09:20:39.816Z,101326.00
2018-10-19T09:23:10.065Z,101324.00
2018-10-19T09:25:40.298Z,101322.00
2018-10-19T09:28:10.526Z,101326.00
2018-10-19T09:30:40.893Z,101326.00
2018-10-19T09:33:11.034Z,101328.00
2018-10-19T09:35:41.418Z,101332.00
2018-10-19T09:38:11.454Z,101334.00
2018-10-19T09:40:41.786Z,101330.00
2018-10-19T09:43:12.147Z,101329.00
2018-10-19T09:45:42.314Z,101333.00
2018-10-19T09:48:12.475Z,101322.00
2018-10-19T09:50:42.685Z,101314.00
2018-10-19T09:53:12.849Z,101328.00
2018-10-19T09:55:42.010Z,101330.00
2018-10-19T09:58:11.214Z,101324.00
2018-10-19T10:00:57.817Z,101328.00
2018-10-19T10:03:27.530Z,101322.00
2018-10-19T10:05:56.698Z,101321.00
2018-10-19T10:08:25.873Z,101322.00
2018-10-19T10:10:55.105Z,101330.00
2018-10-19T10:13:24.281Z,101326.00
2018-10-19T10:15:53.535Z,101323.00
2018-10-19T10:18:22.838Z,101326.00
2018-10-19T10:20:52.432Z,101316.00
2018-10-19T10:23:21.629Z,101325.00
2018-10-19T10:25:50.837Z,101329.00
2018-10-19T10:28:20.017Z,101327.00
2018-10-19T10:30:49.201Z,101320.00
2018-10-19T10:33:18.417Z,101326.00
2018-10-19T10:35:47.604Z,101333.00
2018-10-19T10:38:16.773Z,101333.00
2018-10-19T10:40:45.953Z,101333.00
2018-10-19T10:43:15.187Z,101338.00
2018-10-19T10:45:44.895Z,101333.00
2018-10-19T10:48:14.134Z,101331.00
2018-10-19T10:50:43.508Z,101334.00
2018-10-19T10:53:12.689Z,101328.00
2018-10-19T10:56:08.397Z,101324.00
2018-10-19T10:58:37.561Z,101329.00
2018-10-19T11:01:06.953Z,101331.00
2018-10-19T11:03:36.184Z,101329.00
2018-10-19T11:06:05.566Z,101326.00
2018-10-19T11:08:34.740Z,101330.00
2018-10-19T11:11:10.882Z,101333.00
2018-10-19T11:13:40.763Z,101328.00
2018-10-19T11:16:11.152Z,101327.00
2018-10-19T11:18:40.686Z,101321.00
2018-10-19T11:21:10.171Z,101323.00
2018-10-19T11:23:39.385Z,101322.00
2018-10-19T11:26:08.574Z,101320.00
2018-10-19T11:28:37.731Z,101320.00
2018-10-19T11:31:07.180Z,101324.00
2018-10-19T11:33:36.322Z,101318.00
2018-10-19T11:36:05.517Z,101314.00
2018-10-19T11:38:35.454Z,101303.00
2018-10-19T11:41:04.641Z,101307.00
2018-10-19T11:43:33.922Z,101306.00
2018-10-19T11:46:03.162Z,101301.00
2018-10-19T11:48:32.341Z,101306.00
2018-10-19T11:51:09.979Z,101301.00
2018-10-19T11:53:39.173Z,101295.00
2018-10-19T11:56:08.348Z,101305.00
2018-10-19T11:58:37.545Z,101302.00
2018-10-19T12:01:06.799Z,101306.00
2018-10-19T12:03:35.920Z,101297.00
2018-10-19T12:06:05.406Z,101295.00
2018-10-19T12:08:34.717Z,101298.00
2018-10-19T12:11:03.899Z,101296.00
2018-10-19T12:13:33.302Z,101291.00
2018-10-19T12:16:02.541Z,101294.00
2018-10-19T12:18:31.723Z,101287.00
2018-10-19T12:21:01.070Z,101294.00
2018-10-19T12:23:30.170Z,101283.00
2018-10-19T12:25:59.347Z,101281.00
2018-10-19T12:28:28.566Z,101278.00
2018-10-19T12:30:57.797Z,101281.00
2018-10-19T12:33:27.035Z,101282.00
2018-10-19T12:35:56.290Z,101290.00
2018-10-19T12:38:25.468Z,101282.00
2018-10-19T12:40:54.751Z,101288.00
2018-10-19T12:43:23.993Z,101293.00
2018-10-19T12:46:40.061Z,101289.00
2018-10-19T12:49:09.846Z,101293.00
2018-10-19T12:51:39.173Z,101280.00
2018-10-19T12:54:08.617Z,101281.00
2018-10-19T13:02:38.392Z,101275.00
2018-10-19T13:05:07.608Z,101268.00
2018-10-19T13:07:36.802Z,101270.00
2018-10-19T13:10:06.354Z,101268.00
2018-10-19T13:12:35.549Z,101272.00
2018-10-19T13:15:04.959Z,101269.00
2018-10-19T13:17:34.197Z,101266.00
2018-10-19T13:20:03.426Z,101265.00
2018-10-19T13:22:32.618Z,101266.00
2018-10-19T13:25:11.580Z,101259.00
2018-10-19T13:28:09.463Z,101269.00
2018-10-19T13:30:38.680Z,101262.00
2018-10-19T13:33:07.884Z,101254.00
2018-10-19T13:35:37.099Z,101255.00
2018-10-19T13:38:06.298Z,101250.00
2018-10-19T13:40:35.532Z,101254.00
2018-10-19T13:43:04.829Z,101260.00
2018-10-19T13:45:34.323Z,101262.00
2018-10-19T13:48:03.530Z,101257.00
2018-10-19T13:50:32.677Z,101259.00
2018-10-19T13:53:01.959Z,101260.00
2018-10-19T13:58:31.924Z,101260.00
2018-10-19T14:01:01.131Z,101257.00
2018-10-19T14:03:30.329Z,101251.00
2018-10-19T14:05:59.551Z,101247.00
2018-10-19T14:08:28.717Z,101255.00
2018-10-19T14:10:57.892Z,101265.00
2018-10-19T14:13:27.117Z,101259.00
2018-10-19T14:15:56.285Z,101259.00
2018-10-19T14:18:25.495Z,101268.00
2018-10-19T14:20:54.718Z,101261.00
2018-10-19T14:23:23.907Z,101263.00
2018-10-19T14:25:53.217Z,101258.00
2018-10-19T14:28:22.443Z,101272.00
2018-10-19T14:30:51.725Z,101276.00
2018-10-19T14:33:21.030Z,101269.00
2018-10-19T14:35:50.185Z,101272.00
2018-10-19T14:38:19.358Z,101276.00
2018-10-19T14:41:09.321Z,101271.00
2018-10-19T14:47:08.099Z,101277.00
2018-10-19T15:05:07.952Z,101276.00
2018-10-19T15:23:08.630Z,101276.00
2018-10-19T15:32:07.866Z,101269.00
2018-10-19T15:44:08.033Z,101284.00
2018-10-19T15:53:08.397Z,101274.00
2018-10-19T16:05:08.494Z,101281.00
2018-10-19T16:16:38.667Z,101285.00
2018-10-19T16:22:12.453Z,101288.00
2018-10-19T16:28:18.871Z,101296.00
2018-10-19T16:34:09.414Z,101288.00
2018-10-19T16:40:08.066Z,101296.00
2018-10-19T16:52:40.485Z,101304.00
2018-10-19T16:58:11.012Z,101299.00
2018-10-19T17:04:08.071Z,101291.00
2018-10-19T17:16:08.017Z,101284.00
2018-10-19T17:21:38.205Z,101287.00
2018-10-19T17:24:10.826Z,101292.00
2018-10-19T17:30:08.081Z,101286.00
2018-10-19T17:42:09.776Z,101307.00
2018-10-19T17:48:09.300Z,101308.00
2018-10-19T17:51:08.244Z,101308.00
2018-10-19T17:53:37.478Z,101307.00
2018-10-19T17:56:06.793Z,101317.00
2018-10-19T17:58:36.050Z,101317.00
2018-10-19T18:01:05.400Z,101316.00
2018-10-19T18:03:34.714Z,101316.00
2018-10-19T18:06:11.273Z,101318.00
2018-10-19T18:09:08.086Z,101329.00
2018-10-19T18:11:37.451Z,101336.00
2018-10-19T18:14:12.623Z,101336.00
2018-10-19T18:16:41.939Z,101342.00
2018-10-19T18:19:11.178Z,101337.00
2018-10-19T18:21:40.435Z,101343.00
2018-10-19T18:24:09.641Z,101338.00
2018-10-19T18:26:38.827Z,101345.00
2018-10-19T18:29:11.401Z,101345.00
2018-10-19T18:31:41.366Z,101350.00
2018-10-19T18:34:10.607Z,101355.00
2018-10-19T18:37:09.370Z,101350.00
2018-10-19T18:39:38.612Z,101347.00
2018-10-19T18:42:08.465Z,101355.00
2018-10-19T18:44:37.760Z,101361.00
2018-10-19T18:47:07.092Z,101365.00
2018-10-19T18:49:36.671Z,101360.00
2018-10-19T18:52:06.144Z,101368.00
2018-10-19T18:57:35.312Z,101375.00
2018-10-19T19:00:05.228Z,101372.00
2018-10-19T19:02:35.330Z,101375.00
2018-10-19T19:05:05.009Z,101383.00
2018-10-19T19:07:34.268Z,101372.00
2018-10-19T19:10:08.942Z,101376.00
2018-10-19T19:12:38.159Z,101375.00
2018-10-19T19:15:08.009Z,101372.00
2018-10-19T19:17:38.259Z,101362.00
2018-10-19T19:20:13.913Z,101369.00
2018-10-19T19:22:43.760Z,101364.00
2018-10-19T19:25:18.194Z,101365.00
2018-10-19T19:27:47.476Z,101369.00
2018-10-19T19:30:16.774Z,101374.00
2018-10-19T19:32:51.355Z,101366.00
2018-10-19T19:35:21.606Z,101374.00
2018-10-19T19:37:51.946Z,101373.00
2018-10-19T19:40:22.078Z,101363.00
2018-10-19T19:42:53.087Z,101368.00
2018-10-19T19:45:22.322Z,101374.00
2018-10-19T19:47:56.799Z,101379.00
2018-10-19T19:50:26.141Z,101379.00
2018-10-19T19:52:56.352Z,101379.00
2018-10-19T19:55:25.745Z,101380.00
2018-10-19T19:57:54.955Z,101377.00
2018-10-19T20:00:24.170Z,101382.00
2018-10-19T20:03:09.798Z,101388.00
2018-10-19T20:05:39.833Z,101390.00
2018-10-19T20:08:09.155Z,101388.00
2018-10-19T20:10:38.593Z,101386.00
2018-10-19T20:13:07.973Z,101390.00
2018-10-19T20:15:37.177Z,101391.00
2018-10-19T20:18:06.639Z,101385.00
2018-10-19T20:20:37.382Z,101386.00
2018-10-19T20:23:07.063Z,101382.00
2018-10-19T20:25:36.263Z,101383.00
2018-10-19T20:28:07.124Z,101384.00
2018-10-19T20:30:36.402Z,101376.00
2018-10-19T20:33:06.333Z,101380.00
2018-10-19T20:35:35.667Z,101372.00
2018-10-19T20:38:05.010Z,101373.00
2018-10-19T20:40:34.219Z,101379.00
2018-10-19T20:43:10.492Z,101381.00
2018-10-19T20:45:39.705Z,101382.00
2018-10-19T20:48:08.924Z,101378.00
2018-10-19T20:50:38.191Z,101379.00
2018-10-19T20:53:07.485Z,101375.00
2018-10-19T20:55:37.480Z,101384.00
2018-10-19T20:58:06.835Z,101379.00
2018-10-19T21:00:36.016Z,101381.00
2018-10-19T21:03:11.158Z,101385.00
2018-10-19T21:06:09.201Z,101396.00
2018-10-19T21:11:38.982Z,101396.00
2018-10-19T21:14:11.418Z,101386.00
2018-10-19T21:16:40.805Z,101392.00
2018-10-19T21:19:11.176Z,101392.00
2018-10-19T21:21:40.373Z,101389.00
2018-10-19T21:27:09.636Z,101393.00
2018-10-19T21:30:08.094Z,101399.00
2018-10-19T21:32:37.349Z,101391.00
2018-10-19T21:35:13.150Z,101393.00
2018-10-19T21:37:42.329Z,101392.00
2018-10-19T21:40:11.490Z,101388.00
2018-10-19T21:42:40.666Z,101395.00
2018-10-19T21:45:11.688Z,101392.00
2018-10-19T21:47:40.849Z,101394.00
2018-10-19T21:50:11.452Z,101396.00
2018-10-19T21:53:09.956Z,101389.00
2018-10-19T21:55:39.152Z,101398.00
2018-10-19T21:58:11.685Z,101394.00
2018-10-19T22:00:40.911Z,101393.00
2018-10-19T22:03:10.116Z,101398.00
2018-10-19T22:06:08.801Z,101398.00
2018-10-19T22:11:38.574Z,101399.00
2018-10-19T22:14:08.239Z,101403.00
2018-10-19T22:16:37.427Z,101392.00
2018-10-19T22:19:12.456Z,101393.00
2018-10-19T22:21:41.973Z,101394.00
2018-10-19T22:24:11.542Z,101389.00
2018-10-19T22:26:40.721Z,101395.00
2018-10-19T22:29:10.019Z,101398.00
2018-10-19T22:31:39.242Z,101395.00
2018-10-19T22:34:08.437Z,101393.00
2018-10-19T22:36:37.670Z,101401.00
2018-10-19T22:39:08.416Z,101400.00
2018-10-19T22:41:37.914Z,101398.00
2018-10-19T22:44:07.681Z,101399.00
2018-10-19T22:46:36.838Z,101393.00
2018-10-19T22:49:06.599Z,101393.00
2018-10-19T22:51:35.795Z,101395.00
2018-10-19T22:54:05.196Z,101392.00
2018-10-19T22:56:34.380Z,101390.00
2018-10-19T22:59:03.778Z,101389.00
2018-10-19T23:01:32.914Z,101392.00
2018-10-19T23:04:10.653Z,101392.00
2018-10-19T23:14:08.387Z,101380.00
2018-10-19T23:16:37.698Z,101381.00
2018-10-19T23:19:07.225Z,101385.00
2018-10-19T23:21:36.796Z,101386.00
2018-10-19T23:24:06.859Z,101390.00
2018-10-19T23:26:36.020Z,101376.00
2018-10-19T23:29:05.737Z,101378.00
2018-10-19T23:31:35.015Z,101386.00
2018-10-19T23:34:04.621Z,101375.00
2018-10-19T23:36:33.794Z,101381.00
2018-10-19T23:39:02.984Z,101380.00
2018-10-19T23:44:32.689Z,101371.00
2018-10-19T23:47:01.884Z,101373.00
2018-10-19T23:49:31.074Z,101375.00
2018-10-19T23:52:00.522Z,101370.00
2018-10-19T23:57:26.683Z,101371.00
